Time;durP1;ratioP1;P1;durP2;ratioP2;P2;SDS_P1;SDS_P2;PMS_P1;PMS_P2;Temp;Humidity;BMP_temperature;BMP_pressure;BME280_temperature;BME280_humidity;BME280_pressure;Samples;Min_cycle;Max_cycle;Signal;HPM_P1;HPM_P2
2021/08/03 00:00:00;;;;;;;18.10;8.80;;;;;;;13.70;78.51;101186.81;5071332;28;20044;-73
2021/08/03 00:02:29;;;;;;;20.83;8.63;;;;;;;13.72;78.67;101200.84;5054991;28;20064;-73
2021/08/03 00:04:58;;;;;;;20.63;8.75;;;;;;;13.76;78.52;101202.16;5072828;28;20048;-73
2021/08/03 00:07:27;;;;;;;17.20;8.88;;;;;;;13.70;78.11;101203.66;5072165;28;20106;-73
2021/08/03 00:09:56;;;;;;;18.10;8.73;;;;;;;13.68;78.39;101203.00;5052556;28;20047;-73
2021/08/03 00:12:24;;;;;;;17.73;8.52;;;;;;;13.71;78.08;101202.63;5051116;28;20047;-73
2021/08/03 00:14:54;;;;;;;20.45;9.25;;;;;;;13.68;78.64;101202.13;5051091;28;20059;-73
2021/08/03 00:17:23;;;;;;;17.80;9.38;;;;;;;13.70;78.28;101202.81;5052528;28;20403;-73
2021/08/03 00:19:51;;;;;;;26.90;10.13;;;;;;;13.68;78.60;101187.00;5051730;28;20403;-73
2021/08/03 00:22:22;;;;;;;19.23;8.75;;;;;;;13.62;78.00;101179.63;5034772;28;20049;-73
2021/08/03 00:24:50;;;;;;;18.30;9.47;;;;;;;13.63;78.33;101184.81;5035266;28;20044;-73
2021/08/03 00:27:17;;;;;;;17.75;9.48;;;;;;;13.58;78.28;101189.78;5051964;28;20041;-73
2021/08/03 00:29:44;;;;;;;18.45;8.93;;;;;;;13.61;78.52;101188.63;5054464;28;20094;-73
2021/08/03 00:32:11;;;;;;;19.35;9.48;;;;;;;13.58;78.62;101188.97;5069401;28;20047;-73
2021/08/03 00:34:38;;;;;;;19.73;9.18;;;;;;;13.60;78.33;101190.44;5072351;28;20069;-73
2021/08/03 00:37:07;;;;;;;20.00;10.07;;;;;;;13.61;78.25;101181.47;5076159;28;20451;-73
2021/08/03 00:39:37;;;;;;;17.27;9.23;;;;;;;13.66;78.28;101178.31;5074835;28;20051;-73
2021/08/03 00:42:07;;;;;;;19.33;9.70;;;;;;;13.66;78.40;101183.66;5074989;28;20094;-73
2021/08/03 00:44:41;;;;;;;17.98;9.57;;;;;;;13.63;78.29;101178.66;5074978;28;20048;-73
2021/08/03 00:47:11;;;;;;;17.42;9.88;;;;;;;13.61;77.86;101168.13;5076071;28;20412;-73
2021/08/03 00:49:41;;;;;;;16.65;9.00;;;;;;;13.60;77.92;101173.63;5057717;28;20045;-73
2021/08/03 00:52:11;;;;;;;18.73;9.13;;;;;;;13.59;77.55;101171.97;5076343;28;20040;-73
2021/08/03 00:54:39;;;;;;;17.83;9.55;;;;;;;13.55;77.69;101167.94;5058336;28;20051;-73
2021/08/03 00:57:09;;;;;;;18.80;9.98;;;;;;;13.51;78.10;101172.78;5074845;28;20444;-73
2021/08/03 00:59:37;;;;;;;22.25;9.65;;;;;;;13.55;77.84;101158.16;5075854;28;20045;-73
2021/08/03 01:02:06;;;;;;;20.98;9.73;;;;;;;13.53;77.55;101168.09;5075034;28;20041;-73
2021/08/03 01:04:35;;;;;;;18.27;10.23;;;;;;;13.44;77.50;101153.09;5075935;28;20068;-73
2021/08/03 01:07:34;;;;;;;19.75;9.23;;;;;;;13.45;77.50;101162.78;5075853;28;20423;-73
2021/08/03 01:10:25;;;;;;;15.98;9.23;;;;;;;13.48;77.39;101151.78;5075614;28;20055;-73
2021/08/03 01:13:19;;;;;;;22.02;10.48;;;;;;;13.50;77.58;101167.59;5075862;28;20049;-73
2021/08/03 01:15:55;;;;;;;19.38;10.15;;;;;;;13.49;77.65;101155.28;5075707;28;20396;-73
2021/08/03 01:18:35;;;;;;;18.65;10.20;;;;;;;13.45;77.56;101165.44;5058169;28;20082;-73
2021/08/03 01:21:25;;;;;;;18.90;11.20;;;;;;;13.50;77.31;101167.59;5072770;28;20086;-73
2021/08/03 01:23:58;;;;;;;31.98;10.75;;;;;;;13.47;77.40;101159.94;5075547;28;20072;-73
2021/08/03 01:27:00;;;;;;;22.50;10.98;;;;;;;13.45;77.18;101149.44;5090567;28;20080;-73
2021/08/03 01:29:29;;;;;;;20.00;10.52;;;;;;;13.49;77.07;101153.44;5071752;28;20110;-73
2021/08/03 01:32:05;;;;;;;21.67;11.55;;;;;;;13.50;76.80;101156.94;5058028;28;20040;-73
2021/08/03 01:34:36;;;;;;;21.13;10.45;;;;;;;13.49;77.29;101160.63;5074767;28;20123;-73
2021/08/03 01:37:05;;;;;;;19.15;11.07;;;;;;;13.43;76.91;101149.59;5075106;28;20044;-73
2021/08/03 01:39:38;;;;;;;20.65;10.30;;;;;;;13.53;76.98;101152.13;5057415;28;20120;-73
2021/08/03 01:42:07;;;;;;;20.27;10.93;;;;;;;13.56;76.62;101154.47;5075061;28;20048;-73
2021/08/03 01:44:37;;;;;;;22.63;11.00;;;;;;;13.59;76.71;101156.00;5057266;28;20058;-73
2021/08/03 01:47:07;;;;;;;19.20;10.63;;;;;;;13.53;77.00;101151.28;5074335;28;20040;-73
2021/08/03 01:49:40;;;;;;;18.80;10.40;;;;;;;13.54;76.98;101155.63;5074895;28;20431;-73
2021/08/03 01:52:14;;;;;;;17.67;10.25;;;;;;;13.57;76.91;101149.97;5075222;28;20405;-73
2021/08/03 01:54:45;;;;;;;18.27;10.30;;;;;;;13.60;77.11;101150.47;5075253;28;20048;-73
2021/08/03 01:57:15;;;;;;;21.35;10.40;;;;;;;13.63;76.66;101144.81;5073196;28;20397;-73
2021/08/03 01:59:46;;;;;;;19.27;10.07;;;;;;;13.66;77.06;101148.16;5073132;28;20074;-73
2021/08/03 02:02:17;;;;;;;19.52;9.88;;;;;;;13.70;76.83;101153.00;5074010;28;20045;-73
2021/08/03 02:04:48;;;;;;;18.30;10.07;;;;;;;13.71;76.82;101149.31;5073906;28;20402;-73
2021/08/03 02:07:20;;;;;;;21.38;9.70;;;;;;;13.70;76.72;101153.00;5040338;28;20041;-73
2021/08/03 02:09:50;;;;;;;18.92;9.85;;;;;;;13.71;76.55;101149.31;5057089;28;20049;-73
2021/08/03 02:12:17;;;;;;;18.58;9.95;;;;;;;13.72;76.46;101139.50;5072884;28;20040;-73
2021/08/03 02:14:45;;;;;;;21.52;10.38;;;;;;;13.73;77.20;101142.00;5074574;28;20059;-73
2021/08/03 02:17:19;;;;;;;19.38;11.10;;;;;;;13.73;76.90;101143.81;5073137;28;20485;-73
2021/08/03 02:19:57;;;;;;;18.50;10.82;;;;;;;13.78;77.04;101142.34;5074357;28;20408;-73
2021/08/03 02:22:26;;;;;;;20.25;10.35;;;;;;;13.65;77.13;101143.84;5074627;28;20123;-73
2021/08/03 02:25:08;;;;;;;22.63;10.75;;;;;;;13.70;77.22;101141.47;5073410;28;20048;-73
2021/08/03 02:27:35;;;;;;;30.95;11.27;;;;;;;13.77;76.66;101143.34;5074177;28;20044;-73
2021/08/03 02:30:03;;;;;;;19.30;11.20;;;;;;;13.80;77.25;101140.31;5072752;28;20044;-73
2021/08/03 02:33:00;;;;;;;20.10;11.23;;;;;;;13.81;76.81;101139.34;5074425;28;20051;-73
2021/08/03 02:35:35;;;;;;;19.42;10.90;;;;;;;13.83;76.79;101134.69;5072361;28;20063;-73
2021/08/03 02:38:06;;;;;;;19.15;10.98;;;;;;;13.83;76.83;101131.19;5074138;28;20045;-73
2021/08/03 02:40:39;;;;;;;21.92;11.50;;;;;;;13.81;76.83;101126.00;5056330;28;20068;-73
2021/08/03 02:43:19;;;;;;;22.65;10.90;;;;;;;13.79;76.75;101127.19;5073901;28;20443;-73
2021/08/03 02:45:49;;;;;;;21.38;11.65;;;;;;;13.79;76.88;101128.00;5073806;28;20625;-73
2021/08/03 02:48:20;;;;;;;19.92;11.27;;;;;;;13.85;77.48;101125.69;5072633;28;20048;-73
2021/08/03 02:50:47;;;;;;;28.05;11.35;;;;;;;13.82;78.24;101116.16;5074305;28;20448;-73
2021/08/03 02:53:37;;;;;;;21.23;11.80;;;;;;;13.93;78.05;101126.50;5073811;28;20781;-73
2021/08/03 02:56:10;;;;;;;20.92;11.52;;;;;;;13.90;78.48;101126.84;5071932;28;20523;-73
2021/08/03 02:58:44;;;;;;;19.98;11.45;;;;;;;13.90;78.69;101126.84;5071693;28;20070;-73
2021/08/03 03:01:13;;;;;;;23.92;12.38;;;;;;;13.91;79.13;101125.84;5073619;28;20095;-73
2021/08/03 03:03:47;;;;;;;20.00;12.60;;;;;;;13.84;79.10;101124.84;5056104;28;20040;-73
2021/08/03 03:06:20;;;;;;;22.95;13.38;;;;;;;13.90;80.07;101128.66;5073323;28;20040;-73
2021/08/03 03:08:50;;;;;;;22.65;12.80;;;;;;;13.84;80.05;101119.50;5071652;28;20048;-73
2021/08/03 03:11:19;;;;;;;23.08;12.70;;;;;;;13.78;80.82;101118.34;5071788;28;20045;-73
2021/08/03 03:13:52;;;;;;;19.85;12.70;;;;;;;13.75;80.77;101121.34;5054587;28;20083;-73
2021/08/03 03:16:22;;;;;;;26.40;12.77;;;;;;;13.75;80.47;101113.34;5073562;28;20036;-73
2021/08/03 03:18:56;;;;;;;28.88;14.00;;;;;;;13.77;80.66;101110.50;5071810;28;20090;-73
2021/08/03 03:21:25;;;;;;;22.35;13.18;;;;;;;13.77;81.01;101113.16;5072254;28;20056;-73
2021/08/03 03:23:55;;;;;;;23.05;13.57;;;;;;;13.71;80.57;101112.00;5039209;28;20110;-73
2021/08/03 03:26:25;;;;;;;27.58;13.82;;;;;;;13.74;80.31;101109.00;5071698;28;20036;-73
2021/08/03 03:28:55;;;;;;;27.73;14.63;;;;;;;13.77;80.99;101108.69;5068578;28;20111;-73
2021/08/03 03:31:29;;;;;;;26.17;14.75;;;;;;;13.78;81.35;101105.00;5072569;28;20047;-73
2021/08/03 03:34:00;;;;;;;26.10;14.88;;;;;;;13.73;81.15;101104.66;5071361;28;20064;-73
2021/08/03 03:36:29;;;;;;;25.80;14.98;;;;;;;13.77;81.06;101095.34;5071713;28;20064;-73
2021/08/03 03:38:59;;;;;;;28.02;15.20;;;;;;;13.80;81.65;101107.50;5072775;28;20405;-73
2021/08/03 03:41:28;;;;;;;29.75;15.68;;;;;;;13.76;81.75;101103.50;5071332;28;20449;-73
2021/08/03 03:43:56;;;;;;;30.83;17.45;;;;;;;13.75;81.98;101094.69;5072929;28;20476;-73
2021/08/03 03:46:30;;;;;;;30.25;17.33;;;;;;;13.78;81.79;101099.66;5071790;28;20058;-73
2021/08/03 03:49:08;;;;;;;29.00;16.83;;;;;;;13.77;81.80;101098.03;5071662;28;20048;-73
2021/08/03 03:51:39;;;;;;;33.55;18.02;;;;;;;13.74;81.34;101101.00;5071760;28;20098;-73
2021/08/03 03:54:16;;;;;;;32.95;17.45;;;;;;;13.79;81.97;101096.00;5072333;28;20041;-73
2021/08/03 03:56:52;;;;;;;30.33;16.83;;;;;;;13.79;81.66;101097.84;5072471;28;20546;-73
2021/08/03 03:59:21;;;;;;;32.45;18.10;;;;;;;13.79;81.97;101090.69;5088250;28;20044;-73
2021/08/03 04:01:52;;;;;;;32.83;18.25;;;;;;;13.83;82.28;101091.19;5071562;28;20074;-73
2021/08/03 04:04:19;;;;;;;36.50;18.27;;;;;;;13.88;82.02;101098.66;5069835;28;20047;-73
2021/08/03 04:06:46;;;;;;;33.33;18.05;;;;;;;13.83;82.38;101097.34;5072265;28;20475;-73
2021/08/03 04:09:18;;;;;;;32.03;18.60;;;;;;;13.89;82.48;101097.69;5070846;28;20079;-73
2021/08/03 04:11:47;;;;;;;29.80;17.20;;;;;;;13.82;82.23;101095.69;5038849;28;20290;-73
2021/08/03 04:14:22;;;;;;;31.83;17.92;;;;;;;13.89;81.56;101098.50;5071311;28;20408;-73
2021/08/03 04:16:53;;;;;;;33.28;18.48;;;;;;;13.94;82.06;101098.03;5071405;28;20048;-73
2021/08/03 04:19:20;;;;;;;33.72;18.27;;;;;;;13.97;82.31;101109.19;5072258;28;20400;-73
2021/08/03 04:21:47;;;;;;;28.38;17.98;;;;;;;13.99;82.38;101099.19;5054584;28;20566;-73
2021/08/03 04:24:15;;;;;;;32.53;18.33;;;;;;;14.03;81.94;101097.00;5071308;28;20496;-73
2021/08/03 04:26:43;;;;;;;36.53;19.02;;;;;;;13.98;81.88;101091.34;5072121;28;20064;-73
2021/08/03 04:29:10;;;;;;;31.63;18.70;;;;;;;13.98;81.79;101094.84;5072521;28;20106;-73
2021/08/03 04:31:37;;;;;;;29.52;18.30;;;;;;;14.02;81.83;101103.34;5072908;28;20484;-73
2021/08/03 04:34:04;;;;;;;33.10;17.73;;;;;;;14.04;81.47;101101.31;5070748;28;20044;-73
2021/08/03 04:36:31;;;;;;;30.15;18.70;;;;;;;14.04;82.02;101109.31;5070700;28;20045;-73
2021/08/03 04:38:58;;;;;;;33.90;18.60;;;;;;;14.08;81.68;101094.69;5070948;28;20456;-73
2021/08/03 04:41:24;;;;;;;37.83;20.15;;;;;;;14.04;82.15;101098.66;5070610;28;20047;-73
2021/08/03 04:43:51;;;;;;;28.50;18.55;;;;;;;14.07;82.06;101101.00;5069529;28;20496;-73
2021/08/03 04:46:18;;;;;;;29.00;18.83;;;;;;;14.13;82.19;101096.81;5054496;28;20044;-73
2021/08/03 04:48:45;;;;;;;32.90;18.23;;;;;;;14.11;82.10;101094.31;5070640;28;20036;-73
2021/08/03 04:51:11;;;;;;;28.40;17.88;;;;;;;14.18;82.17;101100.66;5070852;28;20333;-73
2021/08/03 04:53:39;;;;;;;30.58;17.67;;;;;;;14.18;81.60;101097.97;5072125;28;20050;-73
2021/08/03 04:56:06;;;;;;;29.20;17.80;;;;;;;14.19;81.43;101097.00;5070478;28;20065;-73
2021/08/03 04:58:33;;;;;;;34.25;18.67;;;;;;;14.25;81.26;101094.66;5070669;28;20043;-73
2021/08/03 05:00:59;;;;;;;34.78;17.60;;;;;;;14.26;80.65;101093.63;5070428;28;20037;-73
2021/08/03 05:03:26;;;;;;;27.25;16.45;;;;;;;14.27;80.86;101097.97;5072026;28;20443;-73
2021/08/03 05:05:53;;;;;;;32.67;17.75;;;;;;;14.26;80.83;101097.16;5054230;28;20123;-73
2021/08/03 05:08:20;;;;;;;29.58;17.38;;;;;;;14.32;80.68;101093.81;5072089;28;20048;-73
2021/08/03 05:10:46;;;;;;;29.77;17.88;;;;;;;14.31;80.94;101097.47;5071672;28;20037;-73
2021/08/03 05:13:13;;;;;;;35.53;18.23;;;;;;;14.34;80.84;101094.47;5070177;28;20037;-74
2021/08/03 05:15:40;;;;;;;32.42;18.08;;;;;;;14.34;80.60;101089.13;5071669;28;20036;-73
2021/08/03 05:18:07;;;;;;;30.90;17.42;;;;;;;14.36;80.44;101095.13;5069946;28;20088;-73
2021/08/03 05:20:34;;;;;;;31.95;18.30;;;;;;;14.27;80.68;101087.31;5071873;28;20094;-73
2021/08/03 05:23:00;;;;;;;30.33;16.80;;;;;;;14.30;79.81;101085.13;5073992;28;20408;-74
2021/08/03 05:25:27;;;;;;;30.40;16.35;;;;;;;14.26;80.32;101089.16;5074206;28;20052;-75
2021/08/03 05:27:54;;;;;;;30.05;15.82;;;;;;;14.31;80.19;101088.63;5074860;28;20128;-72
2021/08/03 05:30:21;;;;;;;34.40;16.13;;;;;;;14.33;78.89;101079.44;5072092;28;20049;-74
2021/08/03 05:32:47;;;;;;;26.92;16.45;;;;;;;14.30;79.09;101087.81;5074279;28;20042;-74
2021/08/03 05:35:14;;;;;;;28.50;15.88;;;;;;;14.32;78.96;101088.47;5075164;28;20048;-74
2021/08/03 05:37:41;;;;;;;32.47;17.67;;;;;;;14.32;79.19;101085.78;5057126;28;20090;-74
2021/08/03 05:40:09;;;;;;;30.48;16.00;;;;;;;14.34;79.03;101085.63;5071935;28;20036;-74
2021/08/03 05:42:36;;;;;;;28.13;15.10;;;;;;;14.35;78.06;101092.59;5074591;28;20044;-74
2021/08/03 05:45:04;;;;;;;28.75;15.85;;;;;;;14.29;78.70;101083.44;5074996;28;20040;-74
2021/08/03 05:47:30;;;;;;;23.98;14.70;;;;;;;14.32;78.46;101084.97;5073893;28;20048;-74
2021/08/03 05:49:57;;;;;;;27.15;14.95;;;;;;;14.42;78.67;101084.75;5074892;28;20455;-73
2021/08/03 05:52:24;;;;;;;25.63;14.80;;;;;;;14.38;78.64;101078.94;5073711;28;20150;-73
2021/08/03 05:54:52;;;;;;;30.17;15.68;;;;;;;14.48;79.86;101081.41;5074700;28;20052;-73
2021/08/03 05:57:18;;;;;;;31.60;15.65;;;;;;;14.52;79.25;101082.75;5074157;28;20400;-73
2021/08/03 05:59:45;;;;;;;31.50;16.10;;;;;;;14.53;79.10;101081.72;5073625;28;20451;-74
2021/08/03 06:02:12;;;;;;;29.33;14.95;;;;;;;14.52;78.15;101082.75;5073375;28;20047;-73
2021/08/03 06:04:38;;;;;;;26.38;14.60;;;;;;;14.58;78.48;101077.56;5074672;28;20048;-73
2021/08/03 06:07:08;;;;;;;27.35;15.23;;;;;;;14.68;78.38;101087.22;5072708;28;20033;-73
2021/08/03 06:09:36;;;;;;;33.63;15.60;;;;;;;14.70;78.03;101083.38;5072970;28;20049;-74
2021/08/03 06:12:04;;;;;;;29.63;14.85;;;;;;;14.73;78.39;101079.50;5040129;28;20040;-73
2021/08/03 06:14:48;;;;;;;24.88;14.77;;;;;;;14.77;78.04;101079.00;5040036;28;20074;-73
2021/08/03 06:17:15;;;;;;;28.27;15.10;;;;;;;14.80;78.41;101085.00;5053369;28;20069;-73
2021/08/03 06:19:46;;;;;;;31.42;15.18;;;;;;;14.93;77.82;101078.09;5069589;28;20408;-73
2021/08/03 06:22:15;;;;;;;26.00;14.85;;;;;;;14.96;78.22;101080.41;5064883;28;20048;-73
2021/08/03 06:24:44;;;;;;;25.88;15.15;;;;;;;14.91;77.86;101077.44;5039794;28;20044;-73
2021/08/03 06:27:16;;;;;;;27.52;14.77;;;;;;;14.96;77.75;101072.41;5074067;28;20043;-73
2021/08/03 06:29:44;;;;;;;31.40;14.43;;;;;;;15.07;77.93;101073.84;5072598;28;20049;-73
2021/08/03 06:32:12;;;;;;;24.48;13.82;;;;;;;15.08;77.81;101072.00;5071010;28;20048;-73
2021/08/03 06:34:43;;;;;;;27.45;13.52;;;;;;;15.09;77.51;101071.84;5074060;28;20044;-73
2021/08/03 06:37:12;;;;;;;31.40;13.05;;;;;;;15.09;77.36;101074.50;5073754;28;20463;-73
2021/08/03 06:39:40;;;;;;;28.10;13.88;;;;;;;15.18;77.79;101071.81;5073793;28;20550;-73
2021/08/03 06:44:53;;;;;;;24.58;13.98;;;;;;;15.26;77.44;101067.25;5110449;27;20383;-72
2021/08/03 06:47:25;;;;;;;28.45;12.73;;;;;;;15.28;76.92;101065.22;5109037;28;20500;-72
2021/08/03 06:49:53;;;;;;;27.92;14.95;;;;;;;15.33;76.96;101067.34;5110033;28;20147;-72
2021/08/03 06:52:21;;;;;;;29.60;12.85;;;;;;;15.33;76.18;101065.53;5110366;28;20048;-72
2021/08/03 06:54:50;;;;;;;27.67;12.15;;;;;;;15.30;76.24;101071.22;5110111;28;20163;-72
2021/08/03 06:57:19;;;;;;;22.23;11.80;;;;;;;15.32;76.09;101066.53;5108530;28;20407;-72
2021/08/03 06:59:52;;;;;;;20.92;11.43;;;;;;;15.32;73.86;101063.84;5091832;28;20322;-73
2021/08/03 07:02:28;;;;;;;22.48;11.85;;;;;;;15.28;74.33;101062.53;5092003;28;20442;-72
2021/08/03 07:04:59;;;;;;;23.02;11.65;;;;;;;15.35;75.19;101065.31;5088812;28;20451;-73
2021/08/03 07:07:26;;;;;;;22.05;11.85;;;;;;;15.32;74.97;101068.38;5096791;28;20085;-73
2021/08/03 07:09:55;;;;;;;26.73;11.57;;;;;;;15.30;75.33;101060.53;5086553;28;20515;-72
2021/08/03 07:12:23;;;;;;;22.17;11.57;;;;;;;15.29;75.48;101061.53;5087861;28;20040;-71
2021/08/03 07:14:50;;;;;;;23.70;12.80;;;;;;;15.33;75.46;101062.00;5088341;28;20127;-72
2021/08/03 07:17:17;;;;;;;20.35;12.52;;;;;;;15.30;75.64;101070.38;5089650;28;20048;-72
2021/08/03 07:19:45;;;;;;;22.63;12.52;;;;;;;15.34;75.41;101063.69;5091357;28;20044;-72
2021/08/03 07:22:14;;;;;;;26.25;12.40;;;;;;;15.39;75.29;101063.97;5108490;28;20465;-72
2021/08/03 07:24:42;;;;;;;20.27;11.98;;;;;;;15.42;75.42;101060.09;5109585;28;20039;-72
2021/08/03 07:27:10;;;;;;;26.85;13.02;;;;;;;15.40;75.84;101064.81;5108206;28;20052;-72
2021/08/03 07:29:37;;;;;;;21.42;12.35;;;;;;;15.42;75.42;101068.13;5109409;28;20039;-72
2021/08/03 07:32:07;;;;;;;20.27;12.38;;;;;;;15.42;75.59;101066.28;5122213;27;20043;-72
2021/08/03 07:34:37;;;;;;;25.70;12.50;;;;;;;15.42;76.25;101060.09;5128230;27;20040;-72
2021/08/03 07:37:05;;;;;;;26.85;11.88;;;;;;;15.41;75.36;101066.44;5095594;28;20373;-72
2021/08/03 07:39:34;;;;;;;23.92;12.30;;;;;;;15.43;74.98;101065.28;5093990;28;20084;-73
2021/08/03 07:42:01;;;;;;;21.30;11.07;;;;;;;15.48;75.23;101065.59;5109152;28;20036;-73
2021/08/03 07:44:28;;;;;;;23.90;12.25;;;;;;;15.55;74.89;101057.66;5107700;28;20048;-72
2021/08/03 07:46:55;;;;;;;31.38;12.32;;;;;;;15.58;75.02;101062.66;5107905;28;20044;-72
2021/08/03 07:49:22;;;;;;;23.17;11.35;;;;;;;15.62;75.18;101060.47;5107659;28;20059;-72
2021/08/03 07:51:51;;;;;;;20.42;11.30;;;;;;;15.70;74.46;101057.72;5107772;28;20389;-72
2021/08/03 07:54:19;;;;;;;24.60;12.35;;;;;;;15.66;73.86;101059.94;5105725;28;20399;-72
2021/08/03 07:56:46;;;;;;;20.90;11.45;;;;;;;15.72;75.04;101066.41;5094194;28;20043;-72
2021/08/03 07:59:13;;;;;;;21.58;11.32;;;;;;;15.74;72.89;101067.91;5094125;28;20048;-72
2021/08/03 08:01:39;;;;;;;22.88;11.63;;;;;;;15.80;72.23;101060.19;5095311;28;20075;-72
2021/08/03 08:04:06;;;;;;;20.67;11.50;;;;;;;15.78;73.32;101057.69;5093630;28;20071;-72
2021/08/03 08:06:33;;;;;;;21.30;11.68;;;;;;;15.84;73.62;101050.78;5076995;28;20392;-72
2021/08/03 08:09:13;;;;;;;29.33;12.45;;;;;;;15.89;73.14;101051.06;5079131;28;20564;-72
2021/08/03 08:11:39;;;;;;;22.15;10.75;;;;;;;16.00;72.94;101053.28;5093532;28;20040;-72
2021/08/03 08:14:06;;;;;;;23.17;11.35;;;;;;;15.95;73.50;101047.66;5095303;28;20032;-72
2021/08/03 08:16:33;;;;;;;29.02;12.68;;;;;;;16.07;72.55;101048.06;5095507;28;20396;-72
2021/08/03 08:19:00;;;;;;;26.27;11.75;;;;;;;16.08;72.48;101034.50;5093095;28;20496;-72
2021/08/03 08:21:32;;;;;;;19.80;11.13;;;;;;;16.19;71.73;101043.91;5077192;28;20040;-72
2021/08/03 08:24:00;;;;;;;22.30;10.40;;;;;;;16.23;70.41;101037.19;5093637;28;20127;-73
2021/08/03 08:26:27;;;;;;;23.35;10.40;;;;;;;16.33;69.80;101034.22;5090153;28;20127;-72
2021/08/03 08:28:54;;;;;;;16.17;9.23;;;;;;;16.31;67.98;101033.56;5091201;28;20561;-72
2021/08/03 08:31:21;;;;;;;19.88;9.13;;;;;;;16.43;68.01;101029.41;5091802;28;20571;-73
2021/08/03 08:33:48;;;;;;;23.88;9.68;;;;;;;16.50;67.66;101029.53;5076648;28;20047;-73
2021/08/03 08:36:15;;;;;;;16.27;9.15;;;;;;;16.74;68.89;101039.09;5076646;28;20043;-72
2021/08/03 08:38:42;;;;;;;22.83;9.55;;;;;;;16.72;67.95;101030.41;5091835;28;20054;-73
2021/08/03 08:41:12;;;;;;;21.35;10.13;;;;;;;16.87;67.67;101022.38;5084081;28;20048;-70
2021/08/03 08:43:43;;;;;;;19.00;10.63;;;;;;;16.98;67.81;101013.84;5086376;28;20408;-69
2021/08/03 08:46:12;;;;;;;18.00;9.45;;;;;;;17.14;67.05;101025.34;5092208;28;20043;-70
2021/08/03 08:48:40;;;;;;;18.40;10.27;;;;;;;17.24;66.80;101013.25;5093888;28;20522;-69
2021/08/03 08:51:07;;;;;;;24.25;11.18;;;;;;;17.64;65.33;101019.00;5092687;28;20074;-69
2021/08/03 08:53:34;;;;;;;19.80;9.80;;;;;;;17.81;63.78;101013.34;5094091;28;20440;-69
2021/08/03 08:56:03;;;;;;;21.17;8.77;;;;;;;17.82;63.19;101020.38;5075658;28;20055;-69
2021/08/03 08:58:33;;;;;;;18.27;9.43;;;;;;;17.90;63.27;101019.41;5091483;28;20043;-69
2021/08/03 09:01:01;;;;;;;17.77;8.43;;;;;;;18.00;64.66;101017.22;5084292;28;20040;-69
2021/08/03 09:03:29;;;;;;;20.98;8.52;;;;;;;18.14;62.79;101012.78;5079385;28;20094;-70
2021/08/03 09:06:00;;;;;;;17.02;7.43;;;;;;;18.23;61.39;101008.91;5086268;28;20032;-69
2021/08/03 09:08:35;;;;;;;20.35;8.23;;;;;;;18.54;58.52;101007.63;5055144;28;20048;-69
2021/08/03 09:11:13;;;;;;;15.43;6.60;;;;;;;18.54;60.12;101013.00;5075753;28;20114;-69
2021/08/03 09:13:58;;;;;;;16.35;6.60;;;;;;;18.45;58.90;101004.25;5118704;27;20036;-69
2021/08/03 09:16:27;;;;;;;16.20;6.75;;;;;;;18.46;59.36;101005.09;5081452;28;20040;-69
2021/08/03 09:18:54;;;;;;;14.10;6.45;;;;;;;18.65;59.23;101006.22;5075284;28;20055;-70
2021/08/03 09:21:27;;;;;;;14.00;6.30;;;;;;;18.51;58.59;101005.31;5074429;28;20496;-69
2021/08/03 09:23:59;;;;;;;13.23;5.95;;;;;;;18.72;58.91;101001.66;5073460;28;20037;-69
2021/08/03 09:26:47;;;;;;;9.88;5.85;;;;;;;18.80;58.01;101004.19;5107714;27;20097;-69
2021/08/03 09:29:17;;;;;;;15.98;5.75;;;;;;;18.81;58.59;101008.56;5085721;28;20040;-69
2021/08/03 09:31:54;;;;;;;13.60;6.05;;;;;;;18.74;57.32;101005.81;5086378;28;20500;-69
2021/08/03 09:34:21;;;;;;;12.93;5.93;;;;;;;18.68;58.75;101000.41;5090210;28;20032;-69
2021/08/03 09:36:56;;;;;;;14.38;6.05;;;;;;;18.85;59.55;101006.31;5089315;28;20038;-69
2021/08/03 09:39:45;;;;;;;10.85;6.22;;;;;;;19.10;58.67;100990.44;5095946;28;20084;-69
2021/08/03 09:44:58;;;;;;;17.65;6.32;;;;;;;19.56;55.94;100989.66;5125605;27;20399;-69
2021/08/03 09:47:29;;;;;;;14.20;5.95;;;;;;;19.71;55.96;100998.31;5104744;28;20048;-69
2021/08/03 09:49:59;;;;;;;14.25;5.95;;;;;;;19.88;54.68;100995.22;5091779;28;20036;-69
2021/08/03 09:52:29;;;;;;;15.18;5.55;;;;;;;20.02;56.43;100988.78;5109676;28;20047;-69
2021/08/03 09:55:17;;;;;;;14.63;5.95;;;;;;;19.97;54.67;100993.16;5124900;28;20052;-70
2021/08/03 09:57:46;;;;;;;10.98;5.32;;;;;;;19.82;56.19;100994.19;5125041;28;20127;-71
2021/08/03 10:00:35;;;;;;;10.35;5.60;;;;;;;19.90;56.38;100990.47;5108541;28;20053;-70
2021/08/03 10:03:03;;;;;;;14.65;5.90;;;;;;;19.76;56.00;100992.38;5107696;28;20040;-69
2021/08/03 10:05:31;;;;;;;15.27;5.80;;;;;;;19.58;56.28;100982.19;5106842;28;20044;-70
2021/08/03 10:07:58;;;;;;;14.82;6.00;;;;;;;19.55;56.51;100987.97;5090926;28;20123;-70
2021/08/03 10:10:25;;;;;;;13.60;5.65;;;;;;;19.52;56.19;100991.94;5107990;28;20114;-71
2021/08/03 10:12:52;;;;;;;14.65;5.78;;;;;;;19.56;56.07;100989.66;5108926;28;20036;-70
2021/08/03 10:15:19;;;;;;;15.73;5.40;;;;;;;19.82;54.04;100982.63;5106464;28;20058;-70
2021/08/03 10:17:45;;;;;;;14.40;5.20;;;;;;;19.73;54.78;100987.38;5107584;28;20503;-70
2021/08/03 10:20:14;;;;;;;10.73;5.07;;;;;;;19.87;55.18;100988.22;5123315;28;20046;-70
2021/08/03 10:22:52;;;;;;;11.95;4.80;;;;;;;19.98;55.25;100984.88;5093562;28;20089;-70
2021/08/03 10:25:21;;;;;;;14.27;5.75;;;;;;;19.75;54.39;100983.47;5121070;28;20047;-70
2021/08/03 10:27:50;;;;;;;12.80;5.40;;;;;;;19.64;56.18;100985.91;5091933;28;20059;-70
2021/08/03 10:30:34;;;;;;;11.52;5.40;;;;;;;19.46;56.29;100981.16;5103696;28;20036;-70
2021/08/03 10:33:09;;;;;;;11.60;5.90;;;;;;;19.37;56.54;100978.69;5104773;28;20129;-71
2021/08/03 10:35:53;;;;;;;12.90;5.93;;;;;;;19.23;56.54;100970.78;5122938;28;20039;-71
2021/08/03 10:38:28;;;;;;;11.00;5.60;;;;;;;19.24;56.58;100975.97;5077792;28;20063;-71
2021/08/03 10:48:54;;;;;;;11.88;4.55;;;;;;;19.21;56.25;100975.56;5109664;27;20384;-70
2021/08/03 10:54:16;;;;;;;10.48;4.80;;;;;;;19.17;54.94;100975.97;5102702;27;20344;-70
2021/08/03 10:57:05;;;;;;;8.07;3.92;;;;;;;19.47;53.72;100970.19;5088155;28;20055;-70
2021/08/03 10:59:35;;;;;;;11.27;4.07;;;;;;;19.49;55.52;100961.91;5087006;28;20064;-69
2021/08/03 11:02:05;;;;;;;8.77;4.25;;;;;;;19.50;55.74;100972.47;5087034;28;20036;-69
2021/08/03 11:12:59;;;;;;;14.55;5.05;;;;;;;19.33;58.08;100972.03;5087499;27;20389;-68
2021/08/03 11:15:35;;;;;;;14.73;5.47;;;;;;;19.10;58.83;100979.66;5076108;28;20447;-71
2021/08/03 11:18:07;;;;;;;12.85;5.00;;;;;;;19.06;60.13;100973.88;5063095;28;20049;-69
2021/08/03 11:23:15;;;;;;;10.63;5.20;;;;;;;18.89;59.98;100978.81;5128709;27;20051;-71
2021/08/03 11:25:45;;;;;;;9.48;4.80;;;;;;;18.77;59.66;100975.03;5130147;27;20108;-71
2021/08/03 11:28:17;;;;;;;10.23;4.68;;;;;;;18.65;61.13;100972.09;5124349;27;20139;-73
2021/08/03 11:30:46;;;;;;;9.10;4.53;;;;;;;18.59;60.52;100975.59;5117721;27;20035;-73
2021/08/03 11:33:14;;;;;;;10.05;4.70;;;;;;;18.47;61.17;100972.66;5103217;28;20067;-73
2021/08/03 11:35:42;;;;;;;10.48;4.72;;;;;;;18.47;62.30;100963.78;5119433;28;20047;-74
2021/08/03 11:38:12;;;;;;;9.25;4.38;;;;;;;18.56;62.54;100963.38;5118083;28;20579;-73
2021/08/03 11:40:44;;;;;;;9.55;4.40;;;;;;;18.53;61.70;100957.59;5125920;28;20055;-73
2021/08/03 11:43:12;;;;;;;11.77;4.05;;;;;;;18.59;61.56;100964.84;5110939;28;20130;-73
2021/08/03 11:45:40;;;;;;;8.90;4.03;;;;;;;18.50;61.75;100958.84;5128449;28;20723;-74
2021/08/03 11:48:22;;;;;;;13.82;4.57;;;;;;;18.34;61.24;100961.88;5124885;27;20038;-73
2021/08/03 11:50:48;;;;;;;;;;;;;;;18.47;61.80;100961.09;5107911;28;20403;-73
2021/08/03 11:53:18;;;;;;;9.60;4.00;;;;;;;18.50;61.41;100958.84;5111386;27;19958;-74